MV Cajun — WDH2458 — position and weather

sailwx.info

Track history (hours):
 
Tides and Currents Weather Stations Pressure Air Temp Water Temp Dewpoint Dewpoint Depression Visibility Wind Speed Wind Dir Waves Ship Positions

MV Cajun

Owner: M/V Cajun 1 LLC, new orleans, LA. More information available from US FCC via Universal Licensing System and Coast Guard Vessel Documentation Center.

Last reported at 2017-Nov-20 00:00 UTC. Time now 2017-Nov-20 00:25 UTC.
Position N 29°49' W 092°18'.

Length 206 m; draft 3 m.

Type: . MMSI: 367597820.

Date/timePositionNaut miles runAvg speedWind from/ knotsBaromVisibWave heightAir tempDewpointWater temp
2017-Nov-20 00:00N 29°49' W 092°18'2 3.2
2017-Nov-19 23:30N 29°49' W 092°16'2 3.4
2017-Nov-19 23:00N 29°48' W 092°14'2 3.6
2017-Nov-19 22:30N 29°47' W 092°12'1 1.8
2017-Nov-19 22:00N 29°47' W 092°11'0 0.1
2017-Nov-19 21:30N 29°47' W 092°11'1 2.0
2017-Nov-19 21:00N 29°47' W 092°10'1 2.4
2017-Nov-19 20:30N 29°47' W 092°09'2 3.3
2017-Nov-19 20:00N 29°47' W 092°07'2 3.3
2017-Nov-19 19:30N 29°48' W 092°05'2 3.2
2017-Nov-19 18:58N 29°49' W 092°04'  
2017-Nov-15 03:06N 29°49' W 091°50'4 5.1
2017-Nov-15 02:16N 29°51' W 091°54'2 5.6
2017-Nov-15 02:00N 29°51' W 091°56'3 5.5
2017-Nov-15 01:30N 29°50' W 091°59'3 5.7
2017-Nov-15 01:00N 29°49' W 092°02'3 5.7
2017-Nov-15 00:30N 29°48' W 092°05'3 5.8
2017-Nov-15 00:00N 29°47' W 092°08'2 4.8
2017-Nov-14 23:30N 29°47' W 092°11'2 3.3
2017-Nov-14 23:00N 29°47' W 092°13'1 2.6
2017-Nov-14 22:30N 29°48' W 092°14'2 4.2
2017-Nov-14 22:00N 29°49' W 092°16'3 5.0
2017-Nov-14 21:30N 29°50' W 092°19'3 5.0
2017-Nov-14 20:58N 29°51' W 092°22'35 5.0
2017-Nov-14 13:57N 29°56' W 093°02'2 5.5
2017-Nov-14 13:30N 29°56' W 093°04'3 5.4
2017-Nov-14 13:00N 29°56' W 093°07'2 4.7
2017-Nov-14 12:30N 29°57' W 093°10'6 5.3
2017-Nov-14 11:21N 30°02' W 093°14'4 4.6
2017-Nov-14 10:23N 30°05' W 093°17'  
2017-Nov-12 05:11N 29°37' W 094°19'1 7.0
2017-Nov-12 04:59N 29°37' W 094°21'6 6.2
2017-Nov-12 04:05N 29°34' W 094°26'1 7.4
2017-Nov-12 03:56N 29°34' W 094°28'6 7.2
2017-Nov-12 03:03N 29°30' W 094°34'0 7.5
2017-Nov-12 03:00N 29°30' W 094°34'9 7.3
2017-Nov-12 01:46N 29°26' W 094°43'9 4.6
2017-Nov-11 23:51N 29°30' W 094°52'3 8.2
2017-Nov-11 23:30N 29°32' W 094°54'4 8.0
2017-Nov-11 23:01N 29°35' W 094°56'4 7.9
2017-Nov-11 22:31N 29°39' W 094°58'4 7.8
2017-Nov-11 22:00N 29°42' W 095°01'5 6.7
2017-Nov-11 21:19N 29°46' W 095°04'0 0.0
2017-Nov-11 21:01N 29°46' W 095°04'0 0.8
2017-Nov-11 20:30N 29°46' W 095°05'3 5.9
2017-Nov-11 20:00N 29°44' W 095°07'1 1.6
2017-Nov-11 19:30N 29°44' W 095°08'0 0.0
2017-Nov-11 19:00N 29°44' W 095°08'0 0.0
2017-Nov-11 18:30N 29°44' W 095°08'0 0.0
2017-Nov-11 17:59N 29°44' W 095°08'0 0.0
2017-Nov-11 17:30N 29°44' W 095°08'0 0.0
2017-Nov-11 16:59N 29°44' W 095°08'0 0.0
2017-Nov-11 16:30N 29°44' W 095°08'0 0.0
2017-Nov-11 15:58N 29°44' W 095°08'0 0.0
2017-Nov-11 15:24N 29°44' W 095°08'0 0.0
2017-Nov-11 15:01N 29°44' W 095°08'0 0.0
2017-Nov-11 14:27N 29°44' W 095°08'0 0.0
2017-Nov-11 14:00N 29°44' W 095°08'0 0.0
2017-Nov-11 13:30N 29°44' W 095°08'0 0.0
2017-Nov-11 13:00N 29°44' W 095°08'0 0.0
2017-Nov-11 12:29N 29°44' W 095°08'0 0.0
2017-Nov-11 12:00N 29°44' W 095°08'0 0.0
2017-Nov-11 11:24N 29°44' W 095°08'0 0.0
2017-Nov-11 11:00N 29°44' W 095°08'0 0.0
2017-Nov-11 10:29N 29°44' W 095°08'0 0.0
2017-Nov-11 09:57N 29°44' W 095°08'0 0.0
2017-Nov-11 09:26N 29°44' W 095°08'0 0.0
2017-Nov-11 09:00N 29°44' W 095°08'0 0.0
2017-Nov-11 08:29N 29°44' W 095°08'0 0.0
2017-Nov-11 07:58N 29°44' W 095°08'0 0.0
2017-Nov-11 07:28N 29°44' W 095°08'0 0.0
2017-Nov-11 06:54N 29°44' W 095°08'0 0.0
2017-Nov-11 06:23N 29°44' W 095°08'0 0.0
2017-Nov-11 05:55N 29°44' W 095°08'0 0.0
2017-Nov-11 05:30N 29°44' W 095°08'0 0.0
2017-Nov-11 05:00N 29°44' W 095°08'0 0.0
2017-Nov-11 04:26N 29°44' W 095°08'0 0.0
2017-Nov-11 03:59N 29°44' W 095°08'0 0.0
2017-Nov-11 03:30N 29°44' W 095°08'0 0.8
2017-Nov-11 03:00N 29°44' W 095°08'2 2.5
2017-Nov-11 02:19N 29°45' W 095°06'2 0.6
2017-Nov-10 23:48N 29°46' W 095°05'1 2.1
2017-Nov-10 23:21N 29°45' W 095°06'0 0.3
2017-Nov-10 22:21N 29°46' W 095°06'2 0.2
2017-Nov-10 11:28N 29°47' W 095°04'0 0.0
2017-Nov-10 10:53N 29°47' W 095°04'0 0.0
2017-Nov-10 10:24N 29°47' W 095°04'0 0.0
2017-Nov-10 09:59N 29°47' W 095°04'0 0.0
2017-Nov-10 09:25N 29°47' W 095°04'0 0.0
2017-Nov-10 09:01N 29°47' W 095°04'0 0.0
2017-Nov-10 08:30N 29°47' W 095°04'0 0.0
2017-Nov-10 07:58N 29°47' W 095°04'0 0.0
2017-Nov-10 07:28N 29°47' W 095°04'0 0.0
2017-Nov-10 06:59N 29°47' W 095°04'0 0.0
2017-Nov-10 06:31N 29°47' W 095°04'0 0.0
2017-Nov-10 05:58N 29°47' W 095°04'0 0.1
2017-Nov-10 05:19N 29°47' W 095°04'0 0.3
2017-Nov-10 05:01N 29°47' W 095°05'0 0.0
2017-Nov-10 04:31N 29°47' W 095°05'0 0.0
2017-Nov-10 04:00N 29°47' W 095°05'0 0.0
2017-Nov-10 03:31N 29°47' W 095°05'0 0.0
2017-Nov-10 03:00N 29°47' W 095°05'0 0.0
2017-Nov-10 02:30N 29°47' W 095°05'2 3.3
2017-Nov-10 02:00N 29°45' W 095°06'0 0.9
2017-Nov-10 01:31N 29°45' W 095°06'1 2.4
2017-Nov-10 01:00N 29°46' W 095°05'1 2.3
2017-Nov-10 00:30N 29°47' W 095°04'  
Track history (hours):
 
Tides and Currents Weather Stations Pressure Air Temp Water Temp Dewpoint Dewpoint Depression Visibility Wind Speed Wind Dir Waves Ship Positions

MV Cajun

Owner: M/V Cajun 1 LLC, new orleans, LA. More information available from US FCC via Universal Licensing System and Coast Guard Vessel Documentation Center.

Last reported at 2017-Nov-20 00:00 UTC. Time now 2017-Nov-20 00:25 UTC.
Position N 29°49' W 092°18'.

Length 206 m; draft 3 m.

Type: . MMSI: 367597820.

Date/timePositionNaut miles runAvg speedWind from/ knotsBaromVisibWave heightAir tempDewpointWater temp
2017-Nov-20 00:00N 29°49' W 092°18'2 3.2
2017-Nov-19 23:30N 29°49' W 092°16'2 3.4
2017-Nov-19 23:00N 29°48' W 092°14'2 3.6
2017-Nov-19 22:30N 29°47' W 092°12'1 1.8
2017-Nov-19 22:00N 29°47' W 092°11'0 0.1
2017-Nov-19 21:30N 29°47' W 092°11'1 2.0
2017-Nov-19 21:00N 29°47' W 092°10'1 2.4
2017-Nov-19 20:30N 29°47' W 092°09'2 3.3
2017-Nov-19 20:00N 29°47' W 092°07'2 3.3
2017-Nov-19 19:30N 29°48' W 092°05'2 3.2
2017-Nov-19 18:58N 29°49' W 092°04'  
2017-Nov-15 03:06N 29°49' W 091°50'4 5.1
2017-Nov-15 02:16N 29°51' W 091°54'2 5.6
2017-Nov-15 02:00N 29°51' W 091°56'3 5.5
2017-Nov-15 01:30N 29°50' W 091°59'3 5.7
2017-Nov-15 01:00N 29°49' W 092°02'3 5.7
2017-Nov-15 00:30N 29°48' W 092°05'3 5.8
2017-Nov-15 00:00N 29°47' W 092°08'2 4.8
2017-Nov-14 23:30N 29°47' W 092°11'2 3.3
2017-Nov-14 23:00N 29°47' W 092°13'1 2.6
2017-Nov-14 22:30N 29°48' W 092°14'2 4.2
2017-Nov-14 22:00N 29°49' W 092°16'3 5.0
2017-Nov-14 21:30N 29°50' W 092°19'3 5.0
2017-Nov-14 20:58N 29°51' W 092°22'35 5.0
2017-Nov-14 13:57N 29°56' W 093°02'2 5.5
2017-Nov-14 13:30N 29°56' W 093°04'3 5.4
2017-Nov-14 13:00N 29°56' W 093°07'2 4.7
2017-Nov-14 12:30N 29°57' W 093°10'6 5.3
2017-Nov-14 11:21N 30°02' W 093°14'4 4.6
2017-Nov-14 10:23N 30°05' W 093°17'  
2017-Nov-12 05:11N 29°37' W 094°19'1 7.0
2017-Nov-12 04:59N 29°37' W 094°21'6 6.2
2017-Nov-12 04:05N 29°34' W 094°26'1 7.4
2017-Nov-12 03:56N 29°34' W 094°28'6 7.2
2017-Nov-12 03:03N 29°30' W 094°34'0 7.5
2017-Nov-12 03:00N 29°30' W 094°34'9 7.3
2017-Nov-12 01:46N 29°26' W 094°43'9 4.6
2017-Nov-11 23:51N 29°30' W 094°52'3 8.2
2017-Nov-11 23:30N 29°32' W 094°54'4 8.0
2017-Nov-11 23:01N 29°35' W 094°56'4 7.9
2017-Nov-11 22:31N 29°39' W 094°58'4 7.8
2017-Nov-11 22:00N 29°42' W 095°01'5 6.7
2017-Nov-11 21:19N 29°46' W 095°04'0 0.0
2017-Nov-11 21:01N 29°46' W 095°04'0 0.8
2017-Nov-11 20:30N 29°46' W 095°05'3 5.9
2017-Nov-11 20:00N 29°44' W 095°07'1 1.6
2017-Nov-11 19:30N 29°44' W 095°08'0 0.0
2017-Nov-11 19:00N 29°44' W 095°08'0 0.0
2017-Nov-11 18:30N 29°44' W 095°08'0 0.0
2017-Nov-11 17:59N 29°44' W 095°08'0 0.0
2017-Nov-11 17:30N 29°44' W 095°08'0 0.0
2017-Nov-11 16:59N 29°44' W 095°08'0 0.0
2017-Nov-11 16:30N 29°44' W 095°08'0 0.0
2017-Nov-11 15:58N 29°44' W 095°08'0 0.0
2017-Nov-11 15:24N 29°44' W 095°08'0 0.0
2017-Nov-11 15:01N 29°44' W 095°08'0 0.0
2017-Nov-11 14:27N 29°44' W 095°08'0 0.0
2017-Nov-11 14:00N 29°44' W 095°08'0 0.0
2017-Nov-11 13:30N 29°44' W 095°08'0 0.0
2017-Nov-11 13:00N 29°44' W 095°08'0 0.0
2017-Nov-11 12:29N 29°44' W 095°08'0 0.0
2017-Nov-11 12:00N 29°44' W 095°08'0 0.0
2017-Nov-11 11:24N 29°44' W 095°08'0 0.0
2017-Nov-11 11:00N 29°44' W 095°08'0 0.0
2017-Nov-11 10:29N 29°44' W 095°08'0 0.0
2017-Nov-11 09:57N 29°44' W 095°08'0 0.0
2017-Nov-11 09:26N 29°44' W 095°08'0 0.0
2017-Nov-11 09:00N 29°44' W 095°08'0 0.0
2017-Nov-11 08:29N 29°44' W 095°08'0 0.0
2017-Nov-11 07:58N 29°44' W 095°08'0 0.0
2017-Nov-11 07:28N 29°44' W 095°08'0 0.0
2017-Nov-11 06:54N 29°44' W 095°08'0 0.0
2017-Nov-11 06:23N 29°44' W 095°08'0 0.0
2017-Nov-11 05:55N 29°44' W 095°08'0 0.0
2017-Nov-11 05:30N 29°44' W 095°08'0 0.0
2017-Nov-11 05:00N 29°44' W 095°08'0 0.0
2017-Nov-11 04:26N 29°44' W 095°08'0 0.0
2017-Nov-11 03:59N 29°44' W 095°08'0 0.0
2017-Nov-11 03:30N 29°44' W 095°08'0 0.8
2017-Nov-11 03:00N 29°44' W 095°08'2 2.5
2017-Nov-11 02:19N 29°45' W 095°06'2 0.6
2017-Nov-10 23:48N 29°46' W 095°05'1 2.1
2017-Nov-10 23:21N 29°45' W 095°06'0 0.3
2017-Nov-10 22:21N 29°46' W 095°06'2 0.2
2017-Nov-10 11:28N 29°47' W 095°04'0 0.0
2017-Nov-10 10:53N 29°47' W 095°04'0 0.0
2017-Nov-10 10:24N 29°47' W 095°04'0 0.0
2017-Nov-10 09:59N 29°47' W 095°04'0 0.0
2017-Nov-10 09:25N 29°47' W 095°04'0 0.0
2017-Nov-10 09:01N 29°47' W 095°04'0 0.0
2017-Nov-10 08:30N 29°47' W 095°04'0 0.0
2017-Nov-10 07:58N 29°47' W 095°04'0 0.0
2017-Nov-10 07:28N 29°47' W 095°04'0 0.0
2017-Nov-10 06:59N 29°47' W 095°04'0 0.0
2017-Nov-10 06:31N 29°47' W 095°04'0 0.0
2017-Nov-10 05:58N 29°47' W 095°04'0 0.1
2017-Nov-10 05:19N 29°47' W 095°04'0 0.3
2017-Nov-10 05:01N 29°47' W 095°05'0 0.0
2017-Nov-10 04:31N 29°47' W 095°05'0 0.0
2017-Nov-10 04:00N 29°47' W 095°05'0 0.0
2017-Nov-10 03:31N 29°47' W 095°05'0 0.0
2017-Nov-10 03:00N 29°47' W 095°05'0 0.0
2017-Nov-10 02:30N 29°47' W 095°05'2 3.3
2017-Nov-10 02:00N 29°45' W 095°06'0 0.9
2017-Nov-10 01:31N 29°45' W 095°06'1 2.4
2017-Nov-10 01:00N 29°46' W 095°05'1 2.3
2017-Nov-10 00:30N 29°47' W 095°04'  

Dump ship's entire track history